Weather  for  Fort Polk  -  United States    United States

12 °C (54 °F)

Current METAR for Fort Polk is :

KPOE 210258Z AUTO 33006KT 10SM CLR 12/05 A3001 RMK AO2 SLP164 T01190054 52028


This is a report for Fort Polk - United States.
The report was made a moment ago, at 02:58 UTC .
The wind was blowing at a speed of 3.1 meters per second (6.9 miles per hour) from north/northwest (330°).
The temperature was 12 °C (54 °F), with a dew-point at 5 °C (41 °F).
The atmospheric pressure was 1016 hPa (30.01 inHg).
The relative humidity was 62.2%.
The sky was clear.
The overall visibility was 16.1 kilometers (10.0 miles).


Country :   A   B   C   D   E   F   G   H   I   J   K   L   M   N   O   P   Q   R   S   T   U   V   W   Y   Z


Site Info  |  Disclaimer  |  Credits  |  Privacy
Contact us  |  Add to favorites
© 2013-2018 METARs - All rights reserved